Observations for OLBIA COSTA SMERALD, Italy (LIEO)

LIEO 140550Z 23011KT CAVOK 10/07 Q1007  
LIEO 140520Z 22009KT CAVOK 10/07 Q1007  
LIEO 140450Z 22008KT CAVOK 10/07 Q1007  
LIEO 140420Z 24009KT CAVOK 09/07 Q1006  
LIEO 140350Z 23009KT CAVOK 10/07 Q1006  
LIEO 140320Z 22006KT CAVOK 10/07 Q1007  
LIEO 140250Z 23005KT CAVOK 10/07 Q1007  
LIEO 140220Z 22006KT CAVOK 11/07 Q1006  
LIEO 140150Z 23006KT CAVOK 11/07 Q1006  
LIEO 140120Z 24006KT CAVOK 11/07 Q1006  
LIEO 140050Z 22009KT CAVOK 12/07 Q1006  
LIEO 140020Z 22009KT CAVOK 12/07 Q1006  
LIEO 132350Z 23007KT CAVOK 13/08 Q1006  
LIEO 132320Z 23007KT CAVOK 13/08 Q1006  
LIEO 132250Z 23007KT 9999 FEW030 13/08 Q1007
LIEO 132220Z 26005KT 9999 FEW030 13/08 Q1007
LIEO 132150Z 28004KT 9999 FEW030 13/08 Q1006
LIEO 132120Z 23006KT 9999 FEW030 13/08 Q1006
LIEO 132050Z 25005KT 9999 FEW030 13/08 Q1006
LIEO 132020Z 24007KT 9999 FEW030 13/08 Q1006
LIEO 131950Z 25003KT 220V280 9999 SCT030 13/07 Q1006
LIEO 131920Z 25005KT 9999 SCT030 14/07 Q1006
LIEO 131850Z 25010KT 9999 SCT030 13/08 Q1005
LIEO 131820Z 25009KT 9999 SCT030 13/08 Q1005
LIEO 131750Z 25007KT 210V280 9999 SCT030 14/08 Q1005
LIEO 131720Z 33003KT 9999 SCT030 14/08 Q1005
LIEO 131650Z 25006KT 210V280 9999 SCT030 14/08 Q1005
LIEO 131620Z 26010KT 9999 SCT030 15/07 Q1004
LIEO 131550Z 26013KT 9999 SCT030 15/07 Q1004
LIEO 131520Z 26013KT 230V290 9999 SCT030 16/07 Q1004
LIEO 131450Z 27014KT 9999 SCT030 16/07 Q1003
LIEO 131420Z 28016KT 9999 SCT035 17/07 Q1003
LIEO 131350Z 26017KT 9999 SCT035 17/06 Q1003
LIEO 131320Z 26017KT 9999 SCT035 17/07 Q1002
LIEO 131250Z 26017KT 9999 SCT035 17/08 Q1002
LIEO 131220Z 27013KT 240V300 9999 R05/P1500N R23/1300N SCT035 17/09 Q1002   
LIEO 131150Z 28011KT 240V320 9999 R05/P1500N R23/1400N SCT035 16/09 Q1002